Time;durP1;ratioP1;P1;durP2;ratioP2;P2;SDS_P1;SDS_P2;PMS_P1;PMS_P2;Temp;Humidity;BMP_temperature;BMP_pressure;BME280_temperature;BME280_humidity;BME280_pressure;Samples;Min_cycle;Max_cycle;Signal;HPM_P1;HPM_P2
2023/04/24 00:00:45;;;;;;;12.63;8.43;;;;;;;12.86;100.00;99932.19;5069950;28;20036;-68
2023/04/24 00:03:10;;;;;;;12.30;7.63;;;;;;;12.77;100.00;99926.19;5066395;28;20032;-68
2023/04/24 00:05:36;;;;;;;9.75;6.70;;;;;;;12.81;100.00;99932.69;5061556;28;20052;-68
2023/04/24 00:08:01;;;;;;;8.88;7.38;;;;;;;12.84;100.00;99921.91;5065617;28;20033;-68
2023/04/24 00:10:27;;;;;;;8.52;7.30;;;;;;;12.86;100.00;99922.53;5062580;28;20069;-68
2023/04/24 00:12:53;;;;;;;11.38;7.40;;;;;;;12.83;100.00;99925.50;5064893;28;20033;-68
2023/04/24 00:15:18;;;;;;;8.77;7.80;;;;;;;12.78;100.00;99921.75;5064451;28;20063;-68
2023/04/24 00:17:43;;;;;;;8.25;6.93;;;;;;;12.72;100.00;99920.69;5066312;28;20131;-68
2023/04/24 00:20:10;;;;;;;12.15;8.05;;;;;;;12.66;100.00;99913.53;5062685;28;20115;-68
2023/04/24 00:22:35;;;;;;;10.90;7.57;;;;;;;12.62;100.00;99920.88;5068799;28;20079;-68
2023/04/24 00:25:01;;;;;;;10.85;7.65;;;;;;;12.62;100.00;99917.47;5063423;28;20504;-69
2023/04/24 00:27:26;;;;;;;10.60;7.72;;;;;;;12.60;100.00;99925.47;5065285;28;20032;-68
2023/04/24 00:29:52;;;;;;;10.55;7.97;;;;;;;12.57;100.00;99920.56;5066050;28;20032;-69
2023/04/24 00:32:17;;;;;;;10.40;8.55;;;;;;;12.57;100.00;99909.31;5067734;28;20112;-68
2023/04/24 00:34:43;;;;;;;15.90;8.98;;;;;;;12.56;100.00;99905.88;5068844;28;20068;-68
2023/04/24 00:37:08;;;;;;;10.60;8.70;;;;;;;12.56;100.00;99905.06;5059475;28;20033;-68
2023/04/24 00:39:34;;;;;;;12.25;8.57;;;;;;;12.58;100.00;99910.94;5070875;28;20021;-68
2023/04/24 00:42:01;;;;;;;10.63;8.38;;;;;;;12.59;100.00;99900.31;5067946;28;20040;-70
2023/04/24 00:44:26;;;;;;;9.95;8.48;;;;;;;12.57;100.00;99893.63;5058550;28;22447;-69
2023/04/24 00:46:54;;;;;;;12.45;9.45;;;;;;;12.53;100.00;99890.53;5061814;28;20033;-68
2023/04/24 00:49:23;;;;;;;10.48;8.82;;;;;;;12.50;100.00;99887.47;5071734;28;20031;-68
2023/04/24 00:51:50;;;;;;;9.43;8.25;;;;;;;12.61;100.00;99881.84;5058898;28;20067;-68
2023/04/24 00:54:17;;;;;;;9.18;7.43;;;;;;;12.73;100.00;99877.88;5063799;28;20040;-68
2023/04/24 00:56:42;;;;;;;11.13;6.90;;;;;;;12.82;100.00;99868.16;5065357;28;20098;-68
2023/04/24 00:59:08;;;;;;;11.93;7.18;;;;;;;12.85;100.00;99859.97;5062130;28;20153;-69
2023/04/24 01:01:35;;;;;;;7.10;6.40;;;;;;;12.89;100.00;99856.03;5066709;28;20064;-68
2023/04/24 01:04:01;;;;;;;6.05;5.40;;;;;;;12.95;100.00;99845.69;5069999;28;20047;-68
2023/04/24 01:06:28;;;;;;;7.20;6.13;;;;;;;12.96;100.00;99852.53;5068253;28;20521;-68
2023/04/24 01:08:55;;;;;;;7.50;6.35;;;;;;;12.97;100.00;99853.34;5070544;28;20045;-69
2023/04/24 01:11:21;;;;;;;13.13;6.10;;;;;;;12.93;100.00;99855.50;5061866;28;20580;-69
2023/04/24 01:13:47;;;;;;;8.30;6.28;;;;;;;12.91;100.00;99854.84;5062639;28;20029;-69
2023/04/24 01:16:14;;;;;;;10.13;6.60;;;;;;;12.89;100.00;99866.47;5066175;28;20166;-68
2023/04/24 01:18:40;;;;;;;9.50;7.05;;;;;;;12.83;100.00;99875.00;5063195;28;20476;-69
2023/04/24 01:21:08;;;;;;;7.50;6.05;;;;;;;12.77;100.00;99870.47;5059619;28;20048;-68
2023/04/24 01:23:34;;;;;;;8.73;6.15;;;;;;;12.72;100.00;99865.78;5048631;28;20127;-69
2023/04/24 01:26:00;;;;;;;8.95;6.18;;;;;;;12.71;100.00;99858.94;5070560;28;20509;-68
2023/04/24 01:28:26;;;;;;;9.20;5.97;;;;;;;12.66;100.00;99855.22;5072643;28;20122;-68
2023/04/24 01:30:52;;;;;;;6.07;5.30;;;;;;;12.61;100.00;99853.91;5052935;28;20048;-69
2023/04/24 01:33:18;;;;;;;7.50;5.00;;;;;;;12.66;100.00;99852.59;5058747;28;20044;-68
2023/04/24 01:35:44;;;;;;;6.05;4.53;;;;;;;12.72;100.00;99842.25;5065890;28;20028;-68
2023/04/24 01:38:10;;;;;;;6.97;5.32;;;;;;;12.77;100.00;99847.75;5061742;28;20020;-68
2023/04/24 01:40:35;;;;;;;6.90;4.70;;;;;;;12.82;100.00;99845.44;5060913;28;20055;-68
2023/04/24 01:43:00;;;;;;;5.47;4.60;;;;;;;12.91;100.00;99846.19;5056884;28;20461;-68
2023/04/24 01:45:26;;;;;;;6.70;5.18;;;;;;;12.91;100.00;99841.78;5066363;28;20130;-68
2023/04/24 01:47:52;;;;;;;6.53;4.80;;;;;;;12.86;100.00;99841.50;5060081;28;20036;-69
2023/04/24 01:50:18;;;;;;;8.38;5.60;;;;;;;12.89;100.00;99841.16;5066170;28;20099;-68
2023/04/24 01:52:44;;;;;;;6.93;4.50;;;;;;;12.98;100.00;99839.28;5063745;28;20063;-68
2023/04/24 01:55:10;;;;;;;5.85;4.95;;;;;;;13.04;100.00;99837.78;5062204;28;20085;-68
2023/04/24 01:57:35;;;;;;;5.95;4.93;;;;;;;13.03;100.00;99830.91;5065585;28;20093;-68
2023/04/24 02:00:03;;;;;;;6.28;5.57;;;;;;;12.99;100.00;99825.22;5061253;28;20033;-68
2023/04/24 02:02:29;;;;;;;8.88;5.20;;;;;;;12.95;100.00;99824.75;5061907;28;20052;-68
2023/04/24 02:04:55;;;;;;;9.30;5.07;;;;;;;12.92;100.00;99814.66;5066354;28;20492;-68
2023/04/24 02:07:20;;;;;;;5.82;5.00;;;;;;;12.91;100.00;99807.78;5068239;28;20125;-68
2023/04/24 02:09:46;;;;;;;6.28;5.05;;;;;;;12.88;100.00;99808.16;5064853;28;20074;-68
2023/04/24 02:12:11;;;;;;;12.20;5.55;;;;;;;12.82;100.00;99816.69;5069300;28;20126;-68
2023/04/24 02:14:37;;;;;;;9.88;5.38;;;;;;;12.78;100.00;99812.78;5060320;28;20120;-68
2023/04/24 02:17:02;;;;;;;6.40;5.70;;;;;;;12.80;100.00;99812.63;5060102;28;20117;-68
2023/04/24 02:19:28;;;;;;;6.18;4.75;;;;;;;12.77;100.00;99811.16;5056062;28;20021;-69
2023/04/24 02:21:53;;;;;;;6.47;5.25;;;;;;;12.75;100.00;99807.94;5061849;28;20040;-68
2023/04/24 02:24:19;;;;;;;7.10;5.28;;;;;;;12.86;100.00;99804.06;5061235;28;20050;-68
2023/04/24 02:26:44;;;;;;;5.13;4.63;;;;;;;12.88;100.00;99808.16;5063133;28;20031;-69
2023/04/24 02:29:10;;;;;;;6.43;5.50;;;;;;;12.87;100.00;99810.94;5062317;28;20063;-68
2023/04/24 02:31:35;;;;;;;7.93;5.72;;;;;;;12.82;100.00;99815.88;5053145;28;20024;-69
2023/04/24 02:34:01;;;;;;;7.20;6.13;;;;;;;12.75;100.00;99813.16;5070281;28;20039;-69
2023/04/24 02:36:26;;;;;;;8.68;6.72;;;;;;;12.72;100.00;99810.09;5060886;28;20447;-68
2023/04/24 02:38:52;;;;;;;7.50;6.68;;;;;;;12.71;100.00;99813.69;5062332;28;20048;-69
2023/04/24 02:41:17;;;;;;;9.60;7.30;;;;;;;12.68;100.00;99807.00;5061506;28;20423;-69
2023/04/24 02:43:42;;;;;;;8.50;7.22;;;;;;;12.69;100.00;99819.09;5059203;28;20059;-68
2023/04/24 02:46:08;;;;;;;13.18;7.90;;;;;;;12.69;100.00;99813.84;5064225;28;20029;-68
2023/04/24 02:48:33;;;;;;;10.05;6.32;;;;;;;12.65;100.00;99817.81;5068476;28;20421;-68
2023/04/24 02:50:59;;;;;;;9.57;6.80;;;;;;;12.59;100.00;99808.03;5067426;28;20088;-68
2023/04/24 02:53:25;;;;;;;10.60;7.30;;;;;;;12.61;100.00;99801.66;5062922;28;20475;-68
2023/04/24 02:55:50;;;;;;;7.25;5.30;;;;;;;12.66;100.00;99790.69;5066870;28;20400;-68
2023/04/24 02:58:17;;;;;;;8.40;5.25;;;;;;;12.85;100.00;99792.81;5054665;28;20067;-68
2023/04/24 03:00:43;;;;;;;6.68;4.65;;;;;;;12.93;100.00;99779.69;5060025;28;20056;-68
2023/04/24 03:03:08;;;;;;;7.63;3.67;;;;;;;12.98;100.00;99788.78;5064397;28;20043;-69
2023/04/24 03:05:34;;;;;;;4.60;3.47;;;;;;;13.00;100.00;99792.03;5065848;28;20040;-68
2023/04/24 03:07:59;;;;;;;7.30;3.33;;;;;;;12.98;100.00;99788.78;5074293;28;20027;-68
2023/04/24 03:10:25;;;;;;;5.72;3.85;;;;;;;13.02;100.00;99787.47;5065798;28;20107;-68
2023/04/24 03:12:50;;;;;;;4.75;3.13;;;;;;;13.01;100.00;99781.41;5076735;28;20503;-68
2023/04/24 03:15:16;;;;;;;4.13;3.65;;;;;;;13.04;100.00;99778.44;5057330;28;20047;-68
2023/04/24 03:17:42;;;;;;;7.53;3.47;;;;;;;13.03;100.00;99770.78;5069576;28;20024;-69
2023/04/24 03:20:08;;;;;;;5.07;3.67;;;;;;;13.02;100.00;99769.16;5061822;28;20485;-68
2023/04/24 03:22:34;;;;;;;6.90;3.72;;;;;;;13.01;100.00;99762.28;5070632;28;20036;-68
2023/04/24 03:25:00;;;;;;;6.90;3.67;;;;;;;13.00;100.00;99760.66;5065499;28;20127;-68
2023/04/24 03:27:25;;;;;;;6.97;3.80;;;;;;;12.98;100.00;99754.81;5058698;28;20107;-69
2023/04/24 03:29:55;;;;;;;10.25;3.72;;;;;;;12.99;100.00;99757.25;5067798;28;20078;-69
2023/04/24 03:32:23;;;;;;;7.32;4.53;;;;;;;12.94;100.00;99760.38;5067634;28;20043;-68
2023/04/24 03:34:49;;;;;;;12.50;5.22;;;;;;;12.84;100.00;99749.34;5062383;28;20385;-68
2023/04/24 03:37:16;;;;;;;6.88;4.75;;;;;;;12.78;100.00;99750.06;5070082;28;20055;-69
2023/04/24 03:39:42;;;;;;;8.30;4.40;;;;;;;12.78;100.00;99747.44;5066339;28;20036;-69
2023/04/24 03:42:08;;;;;;;9.35;3.92;;;;;;;12.77;100.00;99747.63;5070677;28;20028;-68
2023/04/24 03:44:34;;;;;;;5.70;3.97;;;;;;;12.77;100.00;99748.44;5061208;28;20344;-69
2023/04/24 03:47:00;;;;;;;8.07;3.83;;;;;;;12.74;100.00;99746.19;5066344;28;20582;-68
2023/04/24 03:49:26;;;;;;;7.30;4.22;;;;;;;12.77;100.00;99745.00;5065087;28;20638;-69
2023/04/24 03:51:52;;;;;;;6.65;3.88;;;;;;;12.73;100.00;99735.91;5070544;28;20032;-69
2023/04/24 03:54:21;;;;;;;5.55;3.50;;;;;;;12.72;100.00;99739.50;5067936;28;20033;-69
2023/04/24 03:56:46;;;;;;;7.38;3.72;;;;;;;12.73;100.00;99743.75;5063002;28;20458;-69
2023/04/24 03:59:13;;;;;;;4.90;3.28;;;;;;;12.68;100.00;99739.06;5048152;28;20035;-68
2023/04/24 04:01:39;;;;;;;3.72;3.33;;;;;;;12.57;100.00;99744.69;5068097;28;20037;-68
2023/04/24 04:04:05;;;;;;;7.85;4.13;;;;;;;12.54;100.00;99742.41;5073901;28;20369;-68
2023/04/24 04:06:30;;;;;;;7.07;3.75;;;;;;;12.50;100.00;99746.38;5066846;28;20036;-69
2023/04/24 04:08:56;;;;;;;7.88;3.90;;;;;;;12.44;100.00;99740.03;5064453;28;20098;-68
2023/04/24 04:11:22;;;;;;;6.90;3.40;;;;;;;12.45;100.00;99740.84;5063883;28;20028;-69
2023/04/24 04:13:48;;;;;;;6.72;3.00;;;;;;;12.54;100.00;99737.19;5069183;28;20546;-68
2023/04/24 04:16:14;;;;;;;5.63;2.95;;;;;;;12.58;100.00;99723.59;5061258;28;20044;-68
2023/04/24 04:18:39;;;;;;;6.10;3.10;;;;;;;12.62;100.00;99718.84;5069259;28;20054;-69
2023/04/24 04:21:05;;;;;;;5.07;2.60;;;;;;;12.70;100.00;99726.63;5071542;28;20051;-68
2023/04/24 04:23:31;;;;;;;7.15;2.58;;;;;;;12.76;100.00;99722.50;5066997;28;20107;-69
2023/04/24 04:25:57;;;;;;;7.32;2.83;;;;;;;12.71;100.00;99723.03;5066483;28;20086;-68
2023/04/24 04:28:24;;;;;;;6.47;3.00;;;;;;;12.65;100.00;99726.34;5061557;28;20430;-69
2023/04/24 04:30:53;;;;;;;9.40;2.20;;;;;;;12.69;100.00;99725.00;5061915;28;20028;-69
2023/04/24 04:33:19;;;;;;;5.38;2.70;;;;;;;12.73;100.00;99728.88;5062724;28;20033;-69
2023/04/24 04:35:48;;;;;;;8.43;3.50;;;;;;;12.71;100.00;99730.88;5064518;28;20090;-68
2023/04/24 04:38:14;;;;;;;5.38;2.90;;;;;;;12.69;100.00;99725.00;5051318;28;20032;-69
2023/04/24 04:40:40;;;;;;;5.10;4.60;;;;;;;12.67;100.00;99742.66;5068111;28;20043;-69
2023/04/24 04:43:06;;;;;;;7.70;3.15;;;;;;;12.63;100.00;99730.94;5064299;28;20029;-68
2023/04/24 04:45:32;;;;;;;8.63;3.92;;;;;;;12.70;100.00;99731.84;5067884;28;20033;-69
2023/04/24 04:48:00;;;;;;;6.03;2.78;;;;;;;12.81;100.00;99727.97;5057612;28;20029;-68
2023/04/24 04:50:26;;;;;;;6.05;2.90;;;;;;;12.79;100.00;99722.94;5061989;28;20040;-69
2023/04/24 04:52:52;;;;;;;6.30;2.90;;;;;;;12.84;100.00;99720.59;5059875;28;20033;-69
2023/04/24 04:55:19;;;;;;;7.40;3.72;;;;;;;12.93;100.00;99722.16;5058506;28;20468;-69
2023/04/24 04:57:45;;;;;;;6.13;2.90;;;;;;;13.03;100.00;99727.13;5055730;28;20127;-68
2023/04/24 05:00:11;;;;;;;8.10;2.85;;;;;;;13.07;100.00;99743.28;5050197;28;20082;-69
2023/04/24 05:02:37;;;;;;;4.55;2.88;;;;;;;13.09;100.00;99731.66;5065564;28;20380;-69
2023/04/24 05:05:03;;;;;;;8.45;3.17;;;;;;;13.12;100.00;99731.31;5055286;28;20037;-69
2023/04/24 05:07:29;;;;;;;7.70;2.80;;;;;;;13.15;100.00;99737.97;5057499;28;20048;-68
2023/04/24 05:09:54;;;;;;;7.90;3.20;;;;;;;13.12;100.00;99733.91;5057115;28;20090;-68
2023/04/24 05:12:19;;;;;;;6.05;3.00;;;;;;;13.09;100.00;99730.84;5062232;28;20036;-69
2023/04/24 05:14:45;;;;;;;7.88;3.65;;;;;;;13.13;100.00;99732.94;5054612;28;20120;-68
2023/04/24 05:17:11;;;;;;;8.85;4.40;;;;;;;13.12;100.00;99731.31;5053582;28;20035;-68
2023/04/24 05:19:38;;;;;;;8.77;4.53;;;;;;;13.14;100.00;99728.50;5055249;28;20194;-69
2023/04/24 05:22:06;;;;;;;9.75;4.32;;;;;;;13.20;100.00;99744.34;5062451;28;20094;-68
2023/04/24 05:24:32;;;;;;;12.15;5.20;;;;;;;13.16;100.00;99732.59;5051333;28;20366;-69
2023/04/24 05:26:58;;;;;;;8.07;4.43;;;;;;;13.14;100.00;99724.09;5053294;28;20548;-68
2023/04/24 05:29:24;;;;;;;12.65;4.63;;;;;;;13.13;100.00;99724.28;5054397;28;20040;-68
2023/04/24 05:31:49;;;;;;;10.60;4.68;;;;;;;13.13;100.00;99729.50;5057779;28;20028;-68
2023/04/24 05:34:16;;;;;;;7.55;4.55;;;;;;;13.16;100.00;99737.84;5067851;28;20037;-68
2023/04/24 05:36:42;;;;;;;10.05;4.47;;;;;;;13.16;100.00;99734.41;5066135;28;20021;-68
2023/04/24 05:39:08;;;;;;;8.55;4.90;;;;;;;12.99;100.00;99741.56;5056048;28;20036;-68
2023/04/24 05:41:34;;;;;;;12.65;4.32;;;;;;;12.94;100.00;99741.28;5053132;28;20021;-68
2023/04/24 05:43:59;;;;;;;8.32;3.97;;;;;;;12.96;100.00;99745.34;5068819;28;20051;-69
2023/04/24 05:46:25;;;;;;;5.43;3.22;;;;;;;13.02;100.00;99748.22;5053256;28;20588;-68
2023/04/24 05:48:50;;;;;;;8.25;3.50;;;;;;;13.04;100.00;99738.41;5062358;28;20032;-69
2023/04/24 05:51:15;;;;;;;6.93;4.13;;;;;;;13.04;100.00;99735.78;5065001;28;20082;-68
2023/04/24 05:53:41;;;;;;;7.18;3.47;;;;;;;12.98;100.00;99739.94;5058151;28;20043;-68
2023/04/24 05:56:06;;;;;;;6.35;3.80;;;;;;;13.05;100.00;99740.84;5069287;28;20031;-69
2023/04/24 05:58:32;;;;;;;5.43;4.03;;;;;;;13.08;100.00;99745.72;5065214;28;20733;-68
2023/04/24 06:00:58;;;;;;;5.38;4.70;;;;;;;13.07;100.00;99751.13;5064323;28;20024;-69
2023/04/24 06:03:24;;;;;;;9.65;4.70;;;;;;;13.03;100.00;99742.81;5065063;28;20043;-68
2023/04/24 06:05:53;;;;;;;8.05;5.05;;;;;;;12.98;100.00;99752.19;5069069;28;20477;-69
2023/04/24 06:08:19;;;;;;;7.65;4.43;;;;;;;12.96;100.00;99750.56;5061095;28;20051;-68
2023/04/24 06:10:45;;;;;;;10.80;5.07;;;;;;;12.93;100.00;99753.53;5059590;28;20472;-69
2023/04/24 06:13:11;;;;;;;10.10;5.18;;;;;;;12.93;100.00;99758.75;5068629;28;20125;-68
2023/04/24 06:15:36;;;;;;;7.53;4.22;;;;;;;12.92;100.00;99757.13;5061770;28;20040;-69
2023/04/24 06:18:02;;;;;;;7.10;4.30;;;;;;;12.81;100.00;99760.16;5055922;28;20543;-68
2023/04/24 06:20:28;;;;;;;7.07;3.95;;;;;;;12.75;100.00;99760.06;5063489;28;20020;-69
2023/04/24 06:22:54;;;;;;;10.57;4.32;;;;;;;12.71;100.00;99762.22;5071763;28;20036;-68
2023/04/24 06:25:20;;;;;;;10.80;4.97;;;;;;;12.63;100.00;99759.66;5060561;28;20086;-68
2023/04/24 06:27:45;;;;;;;10.50;4.30;;;;;;;12.47;100.00;99767.63;5073158;28;20032;-68
2023/04/24 06:30:11;;;;;;;8.18;4.97;;;;;;;12.38;100.00;99753.78;5064051;28;20537;-68
2023/04/24 06:32:36;;;;;;;11.45;5.75;;;;;;;12.33;100.00;99750.88;5061569;28;20021;-68
2023/04/24 06:35:02;;;;;;;14.43;6.15;;;;;;;12.25;100.00;99749.16;5064511;28;20058;-67
2023/04/24 06:37:28;;;;;;;13.82;6.78;;;;;;;12.17;100.00;99746.59;5063434;28;20059;-68
2023/04/24 06:39:54;;;;;;;12.55;6.40;;;;;;;12.13;100.00;99736.66;5058951;28;20020;-68
2023/04/24 06:42:21;;;;;;;11.23;6.88;;;;;;;12.13;100.00;99742.69;5057116;28;20169;-68
2023/04/24 06:44:47;;;;;;;18.17;8.75;;;;;;;12.22;100.00;99756.53;5056671;28;20376;-68
2023/04/24 06:47:13;;;;;;;17.83;8.98;;;;;;;12.25;100.00;99751.78;5064910;28;20039;-68
2023/04/24 06:49:39;;;;;;;15.75;8.70;;;;;;;12.25;100.00;99753.56;5061907;28;20032;-69
2023/04/24 06:52:06;;;;;;;19.50;9.38;;;;;;;12.22;100.00;99749.50;5060750;28;20454;-68
2023/04/24 06:54:32;;;;;;;16.95;8.02;;;;;;;12.21;100.00;99749.66;5066756;28;20515;-68
2023/04/24 06:56:58;;;;;;;21.40;8.50;;;;;;;12.22;100.00;99746.88;5065895;28;20037;-68
2023/04/24 06:59:24;;;;;;;21.42;8.07;;;;;;;12.16;100.00;99752.78;5050421;28;20098;-67
2023/04/24 07:01:50;;;;;;;15.23;7.22;;;;;;;12.04;100.00;99741.09;5064448;28;20028;-66
2023/04/24 07:04:16;;;;;;;11.43;6.93;;;;;;;11.95;100.00;99745.53;5059298;28;20888;-67
2023/04/24 07:06:43;;;;;;;11.75;6.95;;;;;;;11.89;100.00;99738.41;5064946;28;20089;-67
2023/04/24 07:09:09;;;;;;;11.18;7.70;;;;;;;11.86;100.00;99745.75;5065432;28;20112;-66
2023/04/24 07:11:35;;;;;;;10.98;7.45;;;;;;;11.84;100.00;99739.88;5057683;28;20037;-66
2023/04/24 07:14:00;;;;;;;17.17;7.40;;;;;;;11.85;100.00;99742.31;5067829;28;20508;-66
2023/04/24 07:16:26;;;;;;;14.07;8.15;;;;;;;11.90;100.00;99737.41;5060625;28;20115;-66
2023/04/24 07:18:52;;;;;;;10.32;7.78;;;;;;;11.89;100.00;99737.59;5060155;28;20044;-67
2023/04/24 07:21:17;;;;;;;15.98;7.38;;;;;;;11.87;100.00;99737.75;5071036;28;20416;-67
2023/04/24 07:23:43;;;;;;;17.40;9.35;;;;;;;11.84;100.00;99739.88;5059293;28;20060;-67
2023/04/24 07:26:08;;;;;;;19.45;8.80;;;;;;;11.86;100.00;99745.75;5064437;28;20028;-66
2023/04/24 07:28:33;;;;;;;14.52;8.32;;;;;;;11.87;100.00;99744.78;5066487;28;20361;-67
2023/04/24 07:30:59;;;;;;;14.02;7.50;;;;;;;11.86;100.00;99746.56;5057702;28;20056;-66
2023/04/24 07:33:25;;;;;;;22.45;9.48;;;;;;;11.89;100.00;99742.81;5057607;28;20495;-66
2023/04/24 07:35:51;;;;;;;14.90;9.02;;;;;;;11.94;100.00;99740.50;5053221;28;20025;-66
2023/04/24 07:38:20;;;;;;;15.73;7.55;;;;;;;11.94;100.00;99743.91;5061505;28;20044;-66
2023/04/24 07:40:46;;;;;;;17.20;8.85;;;;;;;11.87;100.00;99750.00;5065303;28;20025;-65
2023/04/24 07:43:11;;;;;;;13.15;7.95;;;;;;;11.78;100.00;99746.63;5061832;28;20060;-65
2023/04/24 07:45:37;;;;;;;16.00;8.35;;;;;;;11.75;100.00;99743.50;5060889;28;20033;-66
2023/04/24 07:48:03;;;;;;;14.27;8.95;;;;;;;11.73;100.00;99729.81;5043307;28;20047;-65
2023/04/24 07:50:29;;;;;;;15.85;9.60;;;;;;;11.74;100.00;99726.22;5058492;28;20120;-65
2023/04/24 07:52:54;;;;;;;17.75;9.05;;;;;;;11.78;100.00;99730.16;5060228;28;20107;-66
2023/04/24 07:55:20;;;;;;;22.30;9.50;;;;;;;11.84;100.00;99734.66;5058328;28;21178;-65
2023/04/24 07:57:45;;;;;;;21.02;10.40;;;;;;;11.94;100.00;99722.22;5074092;28;20044;-65
2023/04/24 08:00:11;;;;;;;57.30;12.63;;;;;;;12.04;100.00;99725.44;5063616;28;20119;-65
2023/04/24 08:02:37;;;;;;;14.75;8.80;;;;;;;12.10;100.00;99727.38;5063310;28;20033;-65
2023/04/24 08:05:03;;;;;;;26.20;10.02;;;;;;;12.15;100.00;99719.03;5060877;28;20064;-65
2023/04/24 08:07:29;;;;;;;14.73;8.45;;;;;;;12.12;100.00;99716.75;5061607;28;20068;-66
2023/04/24 08:09:54;;;;;;;15.25;9.93;;;;;;;12.10;100.00;99718.72;5070274;28;20091;-66
2023/04/24 08:12:19;;;;;;;14.43;9.80;;;;;;;12.09;100.00;99717.91;5062680;28;20033;-66
2023/04/24 08:14:45;;;;;;;18.77;10.48;;;;;;;12.16;100.00;99718.84;5055398;28;20091;-66
2023/04/24 08:17:10;;;;;;;16.00;9.07;;;;;;;12.20;100.00;99724.53;5055834;28;20082;-66
2023/04/24 08:19:36;;;;;;;17.85;8.82;;;;;;;12.16;100.00;99718.84;5058850;28;20028;-66
2023/04/24 08:22:02;;;;;;;12.10;8.15;;;;;;;12.14;100.00;99715.59;5051398;28;20021;-66
2023/04/24 08:24:27;;;;;;;18.65;8.88;;;;;;;12.08;100.00;99716.28;5063653;28;20488;-66
2023/04/24 08:26:53;;;;;;;14.20;7.63;;;;;;;11.96;100.00;99712.44;5062855;28;20045;-66
2023/04/24 08:29:19;;;;;;;18.17;7.85;;;;;;;11.93;100.00;99710.16;5064296;28;20028;-65
2023/04/24 08:31:45;;;;;;;14.32;8.35;;;;;;;11.95;100.00;99705.56;5064177;28;20055;-66
2023/04/24 08:34:10;;;;;;;25.50;8.90;;;;;;;11.97;100.00;99708.84;5065906;28;20098;-65
2023/04/24 08:36:36;;;;;;;14.57;7.70;;;;;;;11.95;100.00;99713.41;5070852;28;20511;-66
2023/04/24 08:39:02;;;;;;;13.52;7.72;;;;;;;12.05;100.00;99721.03;5069067;28;20066;-65
2023/04/24 08:41:27;;;;;;;17.13;7.65;;;;;;;12.07;100.00;99713.84;5068058;28;20124;-66
2023/04/24 08:43:54;;;;;;;13.13;8.32;;;;;;;12.10;100.00;99713.50;5062155;28;20045;-65
2023/04/24 08:46:20;;;;;;;14.93;7.70;;;;;;;12.07;100.00;99712.03;5066523;28;20108;-65
2023/04/24 08:48:46;;;;;;;15.93;8.27;;;;;;;12.01;100.00;99717.94;5062010;28;20383;-66
2023/04/24 08:51:11;;;;;;;13.73;8.18;;;;;;;12.07;100.00;99717.25;5069607;28;20095;-65
2023/04/24 08:53:37;;;;;;;13.15;9.50;;;;;;;12.04;100.00;99722.81;5065032;28;20082;-65
2023/04/24 08:56:03;;;;;;;16.75;9.13;;;;;;;12.08;100.00;99724.13;5066174;28;20139;-65
2023/04/24 08:58:30;;;;;;;14.43;8.35;;;;;;;12.04;100.00;99725.44;5070973;28;20029;-65
2023/04/24 09:00:56;;;;;;;12.13;8.25;;;;;;;12.03;100.00;99721.19;5065699;28;20032;-65
2023/04/24 09:03:22;;;;;;;14.45;9.25;;;;;;;12.06;100.00;99726.09;5064747;28;20032;-65
2023/04/24 09:05:50;;;;;;;10.63;7.10;;;;;;;12.03;100.00;99731.66;5064514;28;20055;-65
2023/04/24 09:08:17;;;;;;;15.90;9.40;;;;;;;12.03;100.00;99734.25;5067594;28;20314;-65
2023/04/24 09:10:43;;;;;;;26.70;10.38;;;;;;;12.13;100.00;99731.44;5063711;28;20040;-65
2023/04/24 09:13:10;;;;;;;16.83;9.45;;;;;;;12.18;100.00;99732.53;5062232;28;20041;-65
2023/04/24 09:15:36;;;;;;;15.98;8.93;;;;;;;12.09;100.00;99733.56;5058999;28;20048;-67
2023/04/24 09:18:02;;;;;;;13.43;8.27;;;;;;;12.11;100.00;99733.41;5063860;28;20055;-67
2023/04/24 09:20:28;;;;;;;14.15;7.13;;;;;;;12.01;100.00;99733.59;5056139;28;20481;-67
2023/04/24 09:22:56;;;;;;;16.77;6.78;;;;;;;12.01;100.00;99731.00;5076705;28;20031;-67
2023/04/24 09:25:30;;;;;;;13.90;7.32;;;;;;;11.99;100.00;99726.94;5060222;28;20089;-67
2023/04/24 09:28:01;;;;;;;15.23;7.53;;;;;;;11.93;100.00;99728.44;5049200;28;21760;-67
2023/04/24 09:30:27;;;;;;;16.45;8.90;;;;;;;11.94;100.00;99722.22;5059040;28;20040;-68
2023/04/24 09:33:21;;;;;;;15.63;9.60;;;;;;;11.91;100.00;99719.97;5063977;28;20044;-67
2023/04/24 09:35:51;;;;;;;19.77;12.45;;;;;;;11.94;100.00;99714.38;5045454;28;20102;-67
2023/04/24 09:38:17;;;;;;;17.73;10.68;;;;;;;11.94;100.00;99719.63;5057735;28;20383;-67
2023/04/24 09:40:43;;;;;;;16.92;10.40;;;;;;;11.94;100.00;99712.59;5060698;28;20031;-67
2023/04/24 09:43:11;;;;;;;16.35;8.38;;;;;;;11.94;100.00;99720.44;5063581;28;20063;-67
2023/04/24 09:45:40;;;;;;;12.18;7.70;;;;;;;11.91;100.00;99710.31;5064283;28;20029;-67
2023/04/24 09:48:09;;;;;;;17.77;8.82;;;;;;;11.97;100.00;99716.66;5057596;28;20161;-67
2023/04/24 09:50:35;;;;;;;14.48;8.20;;;;;;;11.99;100.00;99713.88;5055615;28;20094;-67
2023/04/24 09:53:05;;;;;;;17.60;7.82;;;;;;;11.95;100.00;99708.19;5059991;28;20048;-67
2023/04/24 09:55:31;;;;;;;12.45;7.20;;;;;;;12.00;100.00;99710.28;5058345;28;20621;-67
2023/04/24 09:57:59;;;;;;;15.13;8.40;;;;;;;12.02;100.00;99705.72;5061700;28;20041;-67
2023/04/24 10:00:31;;;;;;;13.30;8.55;;;;;;;12.06;100.00;99701.78;5061641;28;20449;-67
2023/04/24 10:03:05;;;;;;;17.23;8.73;;;;;;;12.10;100.00;99690.00;5059435;28;20067;-67
2023/04/24 10:05:36;;;;;;;11.38;7.63;;;;;;;12.08;100.00;99690.16;5066596;28;20032;-67
2023/04/24 10:08:10;;;;;;;10.85;5.32;;;;;;;12.00;100.00;99684.19;5051773;28;20085;-67
2023/04/24 10:10:39;;;;;;;13.32;5.65;;;;;;;12.03;100.00;99679.44;5044036;28;20037;-67
2023/04/24 10:13:04;;;;;;;7.47;5.00;;;;;;;12.00;100.00;99687.59;5058307;28;20063;-67
2023/04/24 10:15:30;;;;;;;6.47;4.82;;;;;;;12.01;100.00;99686.63;5059453;28;20138;-67
2023/04/24 10:17:58;;;;;;;6.57;4.25;;;;;;;12.02;100.00;99684.81;5051308;28;20101;-67
2023/04/24 10:20:25;;;;;;;6.30;3.53;;;;;;;12.05;100.00;99681.88;5052523;28;20393;-67
2023/04/24 10:22:53;;;;;;;6.40;3.85;;;;;;;12.06;100.00;99686.91;5069432;28;20480;-67
2023/04/24 10:25:20;;;;;;;4.75;2.67;;;;;;;12.04;100.00;99694.09;5056812;28;20089;-66
2023/04/24 10:27:47;;;;;;;8.02;3.28;;;;;;;12.03;100.00;99689.88;5066795;28;20503;-66
2023/04/24 10:30:13;;;;;;;4.82;3.17;;;;;;;12.03;100.00;99689.88;5058172;28;20115;-67
2023/04/24 10:32:39;;;;;;;5.07;3.20;;;;;;;12.05;100.00;99681.88;5059992;28;20081;-67
2023/04/24 10:35:07;;;;;;;9.80;5.57;;;;;;;12.16;100.00;99689.31;5070521;28;20419;-67
2023/04/24 10:37:43;;;;;;;8.50;4.53;;;;;;;12.15;100.00;99688.50;5071992;28;20107;-65
2023/04/24 10:40:09;;;;;;;4.93;3.47;;;;;;;12.17;100.00;99691.75;5064804;28;20051;-65
2023/04/24 10:42:40;;;;;;;5.25;3.40;;;;;;;12.11;100.00;99699.47;5063364;28;20107;-65
2023/04/24 10:45:06;;;;;;;5.28;2.72;;;;;;;12.12;100.00;99696.66;5062115;28;20039;-65
2023/04/24 10:47:40;;;;;;;4.65;3.10;;;;;;;12.08;100.00;99699.81;5054127;28;20044;-65
2023/04/24 10:50:09;;;;;;;8.00;4.43;;;;;;;12.15;100.00;99698.13;5055519;28;20040;-65
2023/04/24 10:52:45;;;;;;;7.18;3.78;;;;;;;12.18;100.00;99703.00;5053095;28;20039;-65
2023/04/24 10:55:14;;;;;;;5.35;3.58;;;;;;;12.24;100.00;99699.69;5064485;28;20032;-65
2023/04/24 10:57:39;;;;;;;6.30;4.20;;;;;;;12.28;100.00;99706.22;5070957;28;20033;-65
2023/04/24 11:00:21;;;;;;;6.53;3.83;;;;;;;12.36;100.00;99708.75;5061354;28;20036;-65
2023/04/24 11:02:49;;;;;;;11.13;4.68;;;;;;;12.43;100.00;99716.69;5064204;28;20044;-65
2023/04/24 11:05:17;;;;;;;5.05;4.00;;;;;;;12.55;100.00;99717.91;5064525;28;20049;-65
2023/04/24 11:08:13;;;;;;;5.38;3.35;;;;;;;12.60;100.00;99715.59;5063141;28;20027;-65
2023/04/24 11:10:47;;;;;;;6.38;3.35;;;;;;;12.63;100.00;99715.25;5070914;28;20033;-65
2023/04/24 11:13:17;;;;;;;5.25;3.33;;;;;;;12.68;100.00;99717.34;5066925;28;20112;-65
2023/04/24 11:15:42;;;;;;;5.35;3.50;;;;;;;12.67;100.00;99716.53;5073546;28;20032;-65
2023/04/24 11:18:15;;;;;;;6.65;4.20;;;;;;;12.63;100.00;99717.84;5076287;28;20037;-65